Time;durP1;ratioP1;P1;durP2;ratioP2;P2;SDS_P1;SDS_P2;PMS_P1;PMS_P2;Temp;Humidity;BMP_temperature;BMP_pressure;BME280_temperature;BME280_humidity;BME280_pressure;Samples;Min_cycle;Max_cycle;Signal;HPM_P1;HPM_P2
2023/10/01 14:33:48;;;;;;;37.70;4.20;;;21.10;65.30;;;;;;5127709;27;20403;-57
2023/10/01 14:36:20;;;;;;;20.23;4.25;;;21.30;63.90;;;;;;5126467;22;20052;-60
2023/10/01 14:38:45;;;;;;;27.73;4.72;;;21.40;64.60;;;;;;5105085;28;20016;-59
2023/10/01 14:41:16;;;;;;;24.85;4.25;;;21.40;64.00;;;;;;5108246;28;20031;-59
2023/10/01 14:43:52;;;;;;;21.38;5.00;;;21.50;64.60;;;;;;5107736;28;20403;-56
2023/10/01 14:46:20;;;;;;;19.52;3.85;;;21.50;64.00;;;;;;5106032;28;20023;-62
2023/10/01 14:48:46;;;;;;;26.00;4.40;;;21.60;64.30;;;;;;5107472;28;20093;-58
2023/10/01 14:51:16;;;;;;;22.55;3.85;;;21.50;63.50;;;;;;5108170;28;20617;-58
2023/10/01 14:53:43;;;;;;;15.43;4.15;;;21.50;64.30;;;;;;5107847;28;20023;-56
2023/10/01 14:56:10;;;;;;;13.23;3.38;;;21.40;64.40;;;;;;5107981;28;20463;-59
2023/10/01 14:58:36;;;;;;;14.15;4.00;;;21.40;64.30;;;;;;5108146;28;20036;-57
2023/10/01 15:01:08;;;;;;;12.80;3.75;;;21.40;64.00;;;;;;5106787;28;20032;-60
2023/10/01 15:03:34;;;;;;;17.92;4.00;;;21.30;64.00;;;;;;5107670;28;20027;-59
2023/10/01 15:06:03;;;;;;;9.50;3.15;;;21.30;64.40;;;;;;5107765;28;20031;-59
2023/10/01 15:08:38;;;;;;;16.98;4.15;;;21.30;64.40;;;;;;5107839;28;20164;-60
2023/10/01 15:11:14;;;;;;;15.57;3.85;;;21.30;64.40;;;;;;5106664;28;20032;-58
2023/10/01 15:13:41;;;;;;;12.63;3.55;;;21.30;64.20;;;;;;5107664;28;20024;-60
2023/10/01 15:16:12;;;;;;;12.52;3.38;;;21.30;64.20;;;;;;5089831;28;20521;-57
2023/10/01 15:18:42;;;;;;;11.80;3.72;;;21.40;64.30;;;;;;5107796;28;20031;-60
2023/10/01 15:21:17;;;;;;;13.18;3.67;;;21.30;64.30;;;;;;5107579;28;20024;-58
2023/10/01 15:23:44;;;;;;;12.00;3.10;;;21.30;64.30;;;;;;5107388;28;20020;-58
2023/10/01 15:26:12;;;;;;;10.63;3.70;;;21.40;64.40;;;;;;5107516;28;20331;-58
2023/10/01 15:28:38;;;;;;;12.10;3.15;;;21.40;64.50;;;;;;5107453;28;20032;-57
2023/10/01 15:31:04;;;;;;;10.23;2.95;;;21.30;64.40;;;;;;5107360;28;20108;-55
2023/10/01 15:33:30;;;;;;;8.93;3.72;;;21.30;64.50;;;;;;5100847;28;20054;-58
2023/10/01 15:36:04;;;;;;;8.48;3.22;;;21.30;64.60;;;;;;5093646;28;20293;-57
2023/10/01 15:38:31;;;;;;;12.40;3.25;;;21.30;64.60;;;;;;5093690;28;20049;-58
2023/10/01 15:40:57;;;;;;;8.63;3.45;;;21.40;64.70;;;;;;5093664;28;20028;-58
2023/10/01 15:43:23;;;;;;;8.88;3.25;;;21.30;64.70;;;;;;5093126;28;20058;-58
2023/10/01 15:45:50;;;;;;;10.93;2.97;;;21.30;64.70;;;;;;5093734;28;20059;-58
2023/10/01 15:48:19;;;;;;;10.40;3.35;;;21.30;64.80;;;;;;5093539;28;20464;-58
2023/10/01 15:50:46;;;;;;;9.23;3.58;;;21.30;64.80;;;;;;5093514;28;20056;-58
2023/10/01 15:53:21;;;;;;;6.53;3.05;;;21.30;64.90;;;;;;5093279;28;20024;-57
2023/10/01 15:56:02;;;;;;;12.02;3.28;;;21.30;64.90;;;;;;5093318;28;20039;-55
2023/10/01 15:58:28;;;;;;;12.88;3.30;;;21.30;65.00;;;;;;5093245;28;20387;-57
2023/10/01 16:00:54;;;;;;;8.07;3.17;;;21.30;65.30;;;;;;5093341;28;20031;-58
2023/10/01 16:03:29;;;;;;;12.00;3.33;;;21.30;65.30;;;;;;5093226;28;20039;-59
2023/10/01 16:06:11;;;;;;;8.88;2.95;;;21.30;65.80;;;;;;5093050;28;20089;-57
2023/10/01 16:08:42;;;;;;;8.23;3.00;;;21.30;65.60;;;;;;5093242;28;20032;-58
2023/10/01 16:11:09;;;;;;;8.75;3.10;;;21.30;65.60;;;;;;5093221;28;20055;-59
2023/10/01 16:13:35;;;;;;;14.70;3.50;;;21.30;66.00;;;;;;5092708;28;20544;-59
2023/10/01 16:16:09;;;;;;;8.93;2.92;;;21.30;65.70;;;;;;5093448;28;20016;-59
2023/10/01 16:18:41;;;;;;;12.48;3.58;;;21.30;65.80;;;;;;5093206;28;20028;-57
2023/10/01 16:21:11;;;;;;;7.30;3.63;;;21.20;66.10;;;;;;5092926;28;20027;-59
2023/10/01 16:23:42;;;;;;;7.60;2.90;;;21.20;66.20;;;;;;5092714;28;20034;-59
2023/10/01 16:26:17;;;;;;;12.38;3.40;;;21.30;65.90;;;;;;5092932;28;20043;-59
2023/10/01 16:28:44;;;;;;;8.55;3.45;;;21.30;66.10;;;;;;5092967;28;20038;-56
2023/10/01 16:31:15;;;;;;;7.93;3.10;;;21.20;66.10;;;;;;5092850;28;20115;-59
2023/10/01 16:33:48;;;;;;;7.63;3.42;;;21.20;66.10;;;;;;5092400;28;20127;-59
2023/10/01 16:36:17;;;;;;;7.75;2.95;;;21.20;66.20;;;;;;5092486;28;20028;-58
2023/10/01 16:38:46;;;;;;;5.47;3.20;;;21.30;66.00;;;;;;5092862;28;20459;-57
2023/10/01 16:41:15;;;;;;;9.02;3.53;;;21.20;66.20;;;;;;5092503;28;20027;-58
2023/10/01 16:43:42;;;;;;;10.65;3.50;;;21.20;66.30;;;;;;5091139;28;20069;-56
2023/10/01 16:46:17;;;;;;;9.20;3.35;;;21.20;66.30;;;;;;5091392;28;20047;-58
2023/10/01 16:48:46;;;;;;;8.70;3.22;;;21.30;66.20;;;;;;5092512;28;20020;-58
2023/10/01 16:53:45;;;;;;;7.95;3.10;;;21.20;66.50;;;;;;5092056;28;20506;-59
2023/10/01 16:56:13;;;;;;;6.38;2.95;;;21.20;66.40;;;;;;5092183;28;20028;-58
2023/10/01 16:58:40;;;;;;;6.20;3.08;;;21.30;66.10;;;;;;5091966;28;20024;-58
2023/10/01 17:01:17;;;;;;;7.75;3.17;;;21.20;66.20;;;;;;5090912;28;20020;-58
2023/10/01 17:03:53;;;;;;;7.75;2.92;;;21.20;66.20;;;;;;5091970;28;20032;-59
2023/10/01 17:06:25;;;;;;;6.63;3.15;;;21.20;66.30;;;;;;5092084;28;20024;-59
2023/10/01 17:08:55;;;;;;;4.85;2.63;;;21.20;65.90;;;;;;5090708;28;20065;-59
2023/10/01 17:11:23;;;;;;;6.93;3.22;;;21.20;66.10;;;;;;5074124;28;20191;-59
2023/10/01 17:13:50;;;;;;;6.88;3.20;;;21.20;66.40;;;;;;5091635;28;20038;-58
2023/10/01 17:16:26;;;;;;;7.18;3.28;;;21.20;66.40;;;;;;5090628;28;20020;-58
2023/10/01 17:19:08;;;;;;;7.75;3.00;;;21.20;66.20;;;;;;5091867;28;20063;-58
2023/10/01 17:21:47;;;;;;;8.45;3.17;;;21.20;66.40;;;;;;5091828;28;20035;-56
2023/10/01 17:24:27;;;;;;;6.00;2.88;;;21.20;66.60;;;;;;5091708;28;20027;-58
2023/10/01 17:27:16;;;;;;;6.82;2.95;;;21.20;66.50;;;;;;5091833;28;20084;-58
2023/10/01 17:29:42;;;;;;;6.47;3.03;;;21.20;66.20;;;;;;5091821;28;20459;-58
2023/10/01 17:32:12;;;;;;;7.03;3.50;;;21.20;66.30;;;;;;5091420;28;20032;-56
2023/10/01 17:34:39;;;;;;;5.22;3.33;;;21.20;66.10;;;;;;5091502;28;20028;-57
2023/10/01 17:37:23;;;;;;;6.90;3.08;;;21.30;66.20;;;;;;5090100;28;20024;-58
2023/10/01 17:39:57;;;;;;;7.22;3.13;;;21.30;66.00;;;;;;5091419;28;20414;-58
2023/10/01 17:42:25;;;;;;;8.18;3.28;;;21.30;66.20;;;;;;5091076;28;20031;-58
2023/10/01 17:44:51;;;;;;;6.45;3.17;;;21.20;66.50;;;;;;5090203;28;20024;-58
2023/10/01 17:47:20;;;;;;;6.75;3.00;;;21.30;66.00;;;;;;5091330;28;20034;-58
2023/10/01 17:49:54;;;;;;;6.47;2.88;;;21.20;66.40;;;;;;5091638;28;20097;-58
2023/10/01 17:52:25;;;;;;;6.05;3.00;;;21.20;66.00;;;;;;5091100;28;20059;-58
2023/10/01 17:54:59;;;;;;;6.55;3.42;;;21.30;66.00;;;;;;5091372;28;20115;-59
2023/10/01 17:57:26;;;;;;;6.03;3.10;;;21.30;66.10;;;;;;5091137;28;20086;-58
2023/10/01 18:00:00;;;;;;;8.45;2.97;;;21.30;66.10;;;;;;5091502;28;20040;-59
2023/10/01 18:02:31;;;;;;;6.93;3.00;;;21.30;66.70;;;;;;5090784;28;20051;-58
2023/10/01 18:05:17;;;;;;;8.00;3.45;;;21.30;66.10;;;;;;5091253;28;20036;-59
2023/10/01 18:08:03;;;;;;;9.65;3.58;;;21.30;66.20;;;;;;5091197;28;20111;-59
2023/10/01 18:10:41;;;;;;;6.38;3.38;;;21.30;66.40;;;;;;5091157;28;20093;-57
2023/10/01 18:13:23;;;;;;;6.07;3.30;;;21.30;66.40;;;;;;5090697;28;20035;-56
2023/10/01 18:15:54;;;;;;;27.00;4.53;;;21.20;66.50;;;;;;5087844;28;20134;-59
2023/10/01 18:18:25;;;;;;;18.80;4.00;;;21.30;67.50;;;;;;5087386;28;20115;-58
2023/10/01 18:20:52;;;;;;;23.83;3.70;;;21.30;67.50;;;;;;5090775;28;20024;-52
2023/10/01 18:23:21;;;;;;;17.08;4.10;;;21.40;67.00;;;;;;5090626;28;20028;-47
2023/10/01 18:25:53;;;;;;;14.60;3.67;;;21.30;67.00;;;;;;5091012;28;20352;-54
2023/10/01 18:28:24;;;;;;;14.65;4.55;;;21.40;66.40;;;;;;5088672;28;20024;-51
2023/10/01 18:30:50;;;;;;;28.13;4.80;;;21.40;67.90;;;;;;5088084;28;20024;-50
2023/10/01 18:33:20;;;;;;;38.17;4.90;;;21.50;68.80;;;;;;5090856;28;20046;-58
2023/10/01 18:35:55;;;;;;;27.83;4.57;;;21.50;68.40;;;;;;5091087;28;20367;-58
2023/10/01 18:38:33;;;;;;;20.48;4.30;;;21.50;67.40;;;;;;5089206;28;20047;-57
2023/10/01 18:41:01;;;;;;;18.23;4.97;;;21.50;68.50;;;;;;5090604;28;20494;-58
2023/10/01 18:43:27;;;;;;;19.65;4.07;;;21.40;67.80;;;;;;5089140;28;20457;-58
2023/10/01 18:46:00;;;;;;;21.65;5.05;;;21.50;68.70;;;;;;5085776;28;20031;-58
2023/10/01 18:48:38;;;;;;;37.03;4.25;;;21.60;69.70;;;;;;5089850;28;20510;-57
2023/10/01 18:51:06;;;;;;;18.95;3.95;;;21.60;68.90;;;;;;5084798;28;20024;-56
2023/10/01 18:53:33;;;;;;;14.82;4.47;;;21.50;68.00;;;;;;5088698;28;20031;-59
2023/10/01 18:55:59;;;;;;;15.35;4.32;;;21.40;68.30;;;;;;5090104;28;20028;-58
2023/10/01 18:58:27;;;;;;;19.67;4.65;;;21.40;68.30;;;;;;5090611;28;20147;-58
2023/10/01 19:00:54;;;;;;;15.27;4.30;;;21.40;68.40;;;;;;5090666;28;20479;-58
2023/10/01 19:03:21;;;;;;;16.70;4.18;;;21.40;68.80;;;;;;5090335;28;20023;-59
2023/10/01 19:05:58;;;;;;;16.92;4.38;;;21.40;69.30;;;;;;5089609;28;20046;-58
2023/10/01 19:08:25;;;;;;;18.40;4.47;;;21.40;69.40;;;;;;5089699;28;20028;-58
2023/10/01 19:10:51;;;;;;;11.02;4.03;;;21.40;69.20;;;;;;5094500;28;20718;-58
2023/10/01 19:13:17;;;;;;;14.85;4.43;;;21.30;69.00;;;;;;5093956;28;20032;-56
2023/10/01 19:15:43;;;;;;;17.83;4.80;;;21.30;69.00;;;;;;5094241;28;20073;-58
2023/10/01 19:18:10;;;;;;;14.80;4.22;;;21.40;69.60;;;;;;5091988;28;20060;-58
2023/10/01 19:20:38;;;;;;;26.60;6.00;;;21.40;69.20;;;;;;5094037;28;20055;-55
2023/10/01 19:23:04;;;;;;;36.97;7.18;;;21.40;70.10;;;;;;5093686;28;20034;-53
2023/10/01 19:25:30;;;;;;;38.15;7.45;;;21.40;70.60;;;;;;5094150;28;20056;-58
2023/10/01 19:27:57;;;;;;;27.67;8.38;;;21.40;70.50;;;;;;5093685;28;20394;-55
2023/10/01 19:30:25;;;;;;;27.98;8.32;;;21.40;70.30;;;;;;5110395;28;20034;-56
2023/10/01 19:32:52;;;;;;;26.48;7.32;;;21.40;71.20;;;;;;5099673;28;20032;-54
2023/10/01 19:35:22;;;;;;;22.48;7.18;;;21.40;70.00;;;;;;5084821;28;20097;-57
2023/10/01 19:37:50;;;;;;;19.67;7.13;;;21.40;69.90;;;;;;5092271;28;20083;-56
2023/10/01 19:40:22;;;;;;;18.17;6.40;;;21.30;68.50;;;;;;5093773;28;20035;-55
2023/10/01 19:42:54;;;;;;;18.55;7.47;;;21.30;68.70;;;;;;5078185;28;20032;-52
2023/10/01 19:45:26;;;;;;;14.48;7.07;;;21.20;68.90;;;;;;5072304;28;20020;-57
2023/10/01 19:47:55;;;;;;;18.38;9.23;;;21.10;68.50;;;;;;5073156;28;20031;-54
2023/10/01 19:50:41;;;;;;;17.35;8.98;;;21.10;68.80;;;;;;5073080;28;20024;-57
2023/10/01 19:53:14;;;;;;;25.33;8.75;;;21.10;68.60;;;;;;5097830;28;20036;-55
2023/10/01 19:55:58;;;;;;;20.02;7.97;;;21.20;70.10;;;;;;5089671;28;20063;-52
2023/10/01 19:58:31;;;;;;;21.00;8.27;;;21.20;69.30;;;;;;5098875;28;20065;-57
2023/10/01 20:00:59;;;;;;;21.35;8.65;;;21.30;70.10;;;;;;5103952;28;20051;-54
2023/10/01 20:03:28;;;;;;;21.23;7.80;;;21.30;70.50;;;;;;5106808;28;20110;-54
2023/10/01 20:05:53;;;;;;;19.77;7.88;;;21.30;70.60;;;;;;5107245;28;20027;-55
2023/10/01 20:08:27;;;;;;;16.55;7.28;;;21.40;70.10;;;;;;5082224;28;20436;-50
2023/10/01 20:10:54;;;;;;;17.45;7.90;;;21.40;70.40;;;;;;5109286;28;20080;-57
2023/10/01 20:13:22;;;;;;;17.40;7.70;;;21.40;70.70;;;;;;5109681;28;20066;-55
2023/10/01 20:15:51;;;;;;;15.32;7.38;;;21.40;70.10;;;;;;5091891;28;20026;-54
2023/10/01 20:18:19;;;;;;;14.93;7.20;;;21.40;70.20;;;;;;5110790;28;20039;-55
2023/10/01 20:20:55;;;;;;;17.70;7.30;;;21.40;70.50;;;;;;5107091;28;20028;-56
2023/10/01 20:23:23;;;;;;;13.68;7.05;;;21.40;69.60;;;;;;5106555;28;20115;-56
2023/10/01 20:25:54;;;;;;;21.15;7.35;;;21.40;69.60;;;;;;5096894;28;20120;-52
2023/10/01 20:28:27;;;;;;;23.80;7.53;;;21.40;69.90;;;;;;5080162;28;20526;-54
2023/10/01 20:30:57;;;;;;;14.57;7.13;;;21.40;70.30;;;;;;5084145;28;20069;-54
2023/10/01 20:33:25;;;;;;;16.60;7.70;;;21.40;69.90;;;;;;5083796;28;20107;-54
2023/10/01 20:35:55;;;;;;;18.40;7.20;;;21.40;70.10;;;;;;5088532;28;20052;-50
2023/10/01 20:38:32;;;;;;;19.35;7.40;;;21.40;69.80;;;;;;5035608;22;20115;-58
2023/10/01 20:41:14;;;;;;;18.00;6.70;;;21.40;70.00;;;;;;5005514;28;20435;-60
2023/10/01 20:43:51;;;;;;;15.77;7.45;;;21.40;69.80;;;;;;5003881;28;20493;-60
2023/10/01 20:46:17;;;;;;;20.63;7.97;;;21.40;70.20;;;;;;5021085;28;20020;-60
2023/10/01 20:48:45;;;;;;;21.60;6.78;;;21.40;70.10;;;;;;4988811;28;20038;-59
2023/10/01 20:51:28;;;;;;;35.50;9.45;;;21.40;70.30;;;;;;4988871;28;20113;-58
2023/10/01 20:53:59;;;;;;;23.88;7.40;;;21.40;70.60;;;;;;5005938;28;20030;-59
2023/10/01 20:56:27;;;;;;;27.48;7.95;;;21.40;70.00;;;;;;5005567;28;20033;-60
2023/10/01 20:59:00;;;;;;;15.48;7.20;;;21.40;69.80;;;;;;4977126;28;20038;-59
2023/10/01 21:01:37;;;;;;;19.95;7.82;;;21.40;70.20;;;;;;4985276;28;20026;-59
2023/10/01 21:04:26;;;;;;;16.42;6.65;;;21.40;69.60;;;;;;4988550;28;20062;-60
2023/10/01 21:07:01;;;;;;;15.77;6.70;;;21.40;69.60;;;;;;4987893;28;20426;-59
2023/10/01 21:09:38;;;;;;;20.55;6.63;;;21.40;69.80;;;;;;5007853;28;20035;-59
2023/10/01 21:12:15;;;;;;;13.15;6.43;;;21.40;69.50;;;;;;5007873;28;20041;-60
2023/10/01 21:14:47;;;;;;;17.08;6.85;;;21.40;70.00;;;;;;4997833;28;20045;-57
2023/10/01 21:17:26;;;;;;;25.52;6.90;;;21.40;69.60;;;;;;4979711;28;20069;-59
2023/10/01 21:19:53;;;;;;;18.60;6.75;;;21.40;69.50;;;;;;4991264;28;20540;-57
2023/10/01 21:22:21;;;;;;;14.82;6.47;;;21.40;69.40;;;;;;5017839;28;20135;-60
2023/10/01 21:24:47;;;;;;;16.67;6.70;;;21.40;69.50;;;;;;5005069;28;20033;-59
2023/10/01 21:27:15;;;;;;;16.17;6.20;;;21.40;69.50;;;;;;5005288;28;20030;-58
2023/10/01 21:29:45;;;;;;;14.35;6.25;;;21.40;69.50;;;;;;4982907;28;20489;-59
2023/10/01 21:32:16;;;;;;;15.27;6.30;;;21.30;69.30;;;;;;5005858;28;20038;-58
2023/10/01 21:34:46;;;;;;;13.85;6.32;;;21.40;69.40;;;;;;5005386;28;20052;-58
2023/10/01 21:37:17;;;;;;;12.55;6.05;;;21.40;69.50;;;;;;4993304;28;20038;-60
2023/10/01 21:39:56;;;;;;;14.52;6.15;;;21.30;69.40;;;;;;4994799;28;20027;-58
2023/10/01 21:42:25;;;;;;;14.70;6.65;;;21.40;69.60;;;;;;4983074;28;20035;-59
2023/10/01 21:44:52;;;;;;;15.38;6.15;;;21.30;69.40;;;;;;4988908;28;20030;-59
2023/10/01 21:47:19;;;;;;;12.35;5.43;;;21.30;69.40;;;;;;4995479;28;20466;-58
2023/10/01 21:49:47;;;;;;;15.13;6.70;;;21.30;69.40;;;;;;4989842;28;20571;-57
2023/10/01 21:52:17;;;;;;;15.18;5.93;;;21.30;69.40;;;;;;4991973;28;20457;-55
2023/10/01 21:54:52;;;;;;;12.63;5.50;;;21.30;70.10;;;;;;4996569;28;20022;-57
2023/10/01 21:57:19;;;;;;;12.00;5.72;;;21.40;70.10;;;;;;4987885;28;20077;-53
2023/10/01 21:59:45;;;;;;;12.32;5.88;;;21.40;70.10;;;;;;4986685;28;20038;-56
2023/10/01 22:02:12;;;;;;;15.35;6.35;;;21.40;70.40;;;;;;4997499;28;20033;-57
2023/10/01 22:04:57;;;;;;;22.38;6.88;;;21.40;70.40;;;;;;5049660;28;20097;-58
2023/10/01 22:07:23;;;;;;;14.38;5.85;;;21.40;70.50;;;;;;5048520;28;20043;-59
2023/10/01 22:10:06;;;;;;;22.73;6.15;;;21.40;70.50;;;;;;5089621;28;20395;-54
2023/10/01 22:12:47;;;;;;;17.63;5.85;;;21.40;70.40;;;;;;5090915;28;20097;-52
2023/10/01 22:15:23;;;;;;;20.85;6.68;;;21.40;70.50;;;;;;5091182;28;20028;-53
2023/10/01 22:17:49;;;;;;;16.25;6.10;;;21.40;70.40;;;;;;5081546;28;20069;-58
2023/10/01 22:20:28;;;;;;;16.88;5.85;;;21.40;71.00;;;;;;5048615;28;20028;-58
2023/10/01 22:22:54;;;;;;;15.43;6.20;;;21.30;70.30;;;;;;5004912;28;20050;-56
2023/10/01 22:25:20;;;;;;;13.65;5.57;;;21.30;70.60;;;;;;5029898;28;20095;-59
2023/10/01 22:27:47;;;;;;;15.75;5.75;;;21.30;70.20;;;;;;5052882;28;20024;-57
2023/10/01 22:30:18;;;;;;;18.05;5.47;;;21.30;70.70;;;;;;5021871;28;20068;-55
2023/10/01 22:32:50;;;;;;;18.67;6.43;;;21.30;70.60;;;;;;5065295;28;20077;-55
2023/10/01 22:35:18;;;;;;;17.20;6.00;;;21.30;70.10;;;;;;5063867;28;20035;-57
2023/10/01 22:37:55;;;;;;;18.67;5.78;;;21.30;69.90;;;;;;5013674;28;20404;-56
2023/10/01 22:40:24;;;;;;;13.57;6.10;;;21.30;70.20;;;;;;5003981;28;20059;-59
2023/10/01 22:42:52;;;;;;;16.10;6.30;;;21.30;69.90;;;;;;5044305;28;20028;-59
2023/10/01 22:45:37;;;;;;;17.73;6.25;;;21.30;70.20;;;;;;5076906;28;20020;-58
2023/10/01 22:48:17;;;;;;;14.05;5.80;;;21.30;70.90;;;;;;5056181;28;20043;-58
2023/10/01 22:50:49;;;;;;;11.32;5.93;;;21.30;70.20;;;;;;5033741;28;20027;-58
2023/10/01 22:53:15;;;;;;;12.25;5.53;;;21.30;70.20;;;;;;5050352;28;20083;-59
2023/10/01 22:55:48;;;;;;;12.48;5.40;;;21.30;70.20;;;;;;5033374;28;20422;-59
2023/10/01 22:58:25;;;;;;;13.85;6.10;;;21.30;70.10;;;;;;5094418;28;20028;-56
2023/10/01 23:00:59;;;;;;;19.02;5.70;;;21.30;70.10;;;;;;5015396;28;20054;-55
2023/10/01 23:03:30;;;;;;;12.45;5.43;;;21.30;70.10;;;;;;5050966;28;20032;-58
2023/10/01 23:06:02;;;;;;;11.38;5.32;;;21.30;70.10;;;;;;4991118;28;20075;-59
2023/10/01 23:08:34;;;;;;;12.07;5.47;;;21.30;70.00;;;;;;5051105;28;20028;-57
2023/10/01 23:11:02;;;;;;;15.13;6.05;;;21.30;70.10;;;;;;5043369;28;20028;-55
2023/10/01 23:13:30;;;;;;;12.77;5.43;;;21.30;69.90;;;;;;5017817;28;20403;-58
2023/10/01 23:16:01;;;;;;;13.00;5.65;;;21.20;69.90;;;;;;5094323;28;20024;-59
2023/10/01 23:18:41;;;;;;;14.02;5.45;;;21.20;70.00;;;;;;5034748;28;20066;-59
2023/10/01 23:21:07;;;;;;;13.18;5.38;;;21.20;69.80;;;;;;5039208;28;20032;-56
2023/10/01 23:23:35;;;;;;;11.93;5.55;;;21.20;69.80;;;;;;5026537;28;20546;-57
2023/10/01 23:26:18;;;;;;;11.45;5.63;;;21.20;69.80;;;;;;5041296;28;20026;-55
2023/10/01 23:31:33;;;;;;;10.65;5.20;;;21.20;69.80;;;;;;5020313;28;20062;-58
2023/10/01 23:34:00;;;;;;;12.40;5.72;;;21.20;69.80;;;;;;5075700;28;20044;-56
2023/10/01 23:36:39;;;;;;;12.18;5.47;;;21.20;69.80;;;;;;5093804;28;20026;-58
2023/10/01 23:39:30;;;;;;;14.13;5.78;;;21.20;69.70;;;;;;5065582;28;20023;-58
2023/10/01 23:42:03;;;;;;;11.75;5.65;;;21.20;69.50;;;;;;5007446;28;20506;-58
2023/10/01 23:44:54;;;;;;;11.85;5.75;;;21.20;69.50;;;;;;5023357;28;20105;-58
2023/10/01 23:47:28;;;;;;;12.50;5.68;;;21.20;69.60;;;;;;5088414;28;20506;-56
2023/10/01 23:52:53;;;;;;;11.23;5.35;;;21.20;69.50;;;;;;5050958;28;20032;-53
2023/10/01 23:55:31;;;;;;;10.85;5.28;;;21.20;69.40;;;;;;5063782;28;20403;-58
2023/10/01 23:58:46;;;;;;;10.18;5.38;;;21.20;69.40;;;;;;5045396;28;20028;-58
